Time;durP1;ratioP1;P1;durP2;ratioP2;P2;SDS_P1;SDS_P2;PMS_P1;PMS_P2;Temp;Humidity;BMP_temperature;BMP_pressure;BME280_temperature;BME280_humidity;BME280_pressure;Samples;Min_cycle;Max_cycle;Signal;HPM_P1;HPM_P2
2021/03/18 00:01:11;;;;;;;9.10;6.20;;;1.20;99.90;;;;;;4946851;29;20209;-90
2021/03/18 00:03:38;;;;;;;8.03;5.67;;;1.20;99.90;;;;;;4945564;29;20270;-95
2021/03/18 00:06:05;;;;;;;8.97;6.07;;;1.10;99.90;;;;;;4964976;29;20239;-91
2021/03/18 00:08:32;;;;;;;6.53;5.63;;;1.10;99.90;;;;;;4961466;29;20182;-93
2021/03/18 00:11:00;;;;;;;10.20;5.47;;;1.10;99.90;;;;;;4960930;29;20184;-90
2021/03/18 00:13:29;;;;;;;7.70;5.60;;;1.20;99.90;;;;;;4942951;29;20228;-92
2021/03/18 00:15:56;;;;;;;7.97;5.90;;;1.20;99.90;;;;;;4943086;29;20279;-91
2021/03/18 00:18:30;;;;;;;7.80;5.53;;;1.10;99.90;;;;;;4926767;29;20231;-94
2021/03/18 00:20:56;;;;;;;7.57;5.63;;;1.20;99.90;;;;;;4923741;29;20636;-91
2021/03/18 00:23:22;;;;;;;7.93;5.50;;;1.10;99.90;;;;;;4940855;29;20174;-91
2021/03/18 00:25:49;;;;;;;8.30;5.50;;;1.10;99.90;;;;;;5316288;23;20246;-92
2021/03/18 00:28:15;;;;;;;8.23;5.70;;;1.00;99.90;;;;;;4884812;29;20188;-91
2021/03/18 00:30:41;;;;;;;7.93;5.43;;;0.90;99.90;;;;;;4885246;29;20183;-91
2021/03/18 00:33:07;;;;;;;6.87;5.47;;;1.00;99.90;;;;;;4887339;29;20210;-95
2021/03/18 00:35:32;;;;;;;6.57;5.33;;;1.10;99.90;;;;;;4888466;29;20184;-96
2021/03/18 00:37:58;;;;;;;7.97;5.97;;;1.00;99.90;;;;;;4892985;29;20230;-92
2021/03/18 00:40:35;;;;;;;5.83;5.17;;;1.00;99.90;;;;;;4896431;29;20178;-94
2021/03/18 00:43:07;;;;;;;7.07;4.50;;;1.00;99.90;;;;;;4897034;29;20211;-94
2021/03/18 00:45:39;;;;;;;5.53;4.47;;;1.00;99.90;;;;;;4895730;29;20179;-93
2021/03/18 00:48:07;;;;;;;7.00;5.00;;;1.00;99.90;;;;;;4909121;29;20612;-95
2021/03/18 00:50:43;;;;;;;6.23;4.70;;;1.00;99.90;;;;;;4929142;29;20180;-93
2021/03/18 00:53:11;;;;;;;9.23;5.80;;;1.00;99.90;;;;;;4912992;29;20182;-94
2021/03/18 00:55:37;;;;;;;7.40;5.50;;;0.90;99.90;;;;;;4912483;29;20501;-92
2021/03/18 00:58:03;;;;;;;6.57;5.60;;;0.90;99.90;;;;;;4896065;29;20190;-93
2021/03/18 01:00:42;;;;;;;8.03;5.50;;;0.90;99.90;;;;;;4909990;29;20221;-92
2021/03/18 01:03:09;;;;;;;7.83;5.53;;;0.90;99.90;;;;;;4908354;29;20211;-92
2021/03/18 01:05:48;;;;;;;6.23;5.10;;;0.90;99.90;;;;;;4905683;29;20186;-91
2021/03/18 01:08:15;;;;;;;7.03;5.27;;;1.00;99.90;;;;;;4924338;29;20605;-92
2021/03/18 01:10:45;;;;;;;7.27;5.37;;;0.90;99.90;;;;;;4908375;29;20190;-92
2021/03/18 01:13:14;;;;;;;6.90;5.20;;;1.00;99.90;;;;;;4907604;29;20193;-92
2021/03/18 01:15:40;;;;;;;6.17;4.87;;;0.90;99.90;;;;;;4922362;29;20208;-94
2021/03/18 01:18:08;;;;;;;6.80;4.73;;;0.70;99.90;;;;;;4924302;29;20193;-92
2021/03/18 01:20:34;;;;;;;6.63;5.03;;;0.60;99.90;;;;;;4907025;29;20268;-93
2021/03/18 01:23:00;;;;;;;8.20;5.40;;;0.50;99.90;;;;;;4905755;29;20298;-91
2021/03/18 01:25:25;;;;;;;8.93;5.90;;;0.60;99.90;;;;;;4922278;29;20317;-96
2021/03/18 01:27:53;;;;;;;9.33;6.30;;;0.60;99.90;;;;;;4922388;29;20198;-96
2021/03/18 01:30:23;;;;;;;9.50;5.87;;;0.60;99.90;;;;;;4922012;29;20616;-96
2021/03/18 01:32:49;;;;;;;7.90;5.87;;;0.60;99.90;;;;;;4905901;29;20616;-95
2021/03/18 01:35:20;;;;;;;7.03;5.10;;;0.60;99.90;;;;;;4906516;29;20202;-96
2021/03/18 01:37:46;;;;;;;10.30;6.40;;;0.70;99.90;;;;;;4905383;29;20193;-96
2021/03/18 01:40:20;;;;;;;8.10;6.57;;;0.70;99.90;;;;;;4904666;29;20181;-96
2021/03/18 01:42:46;;;;;;;7.13;5.73;;;0.60;99.90;;;;;;4902878;29;20532;-95
2021/03/18 01:45:13;;;;;;;10.03;6.50;;;0.60;99.90;;;;;;4902656;29;20194;-93
2021/03/18 01:47:46;;;;;;;8.37;6.23;;;0.60;99.90;;;;;;4896620;29;20229;-92
2021/03/18 01:50:14;;;;;;;10.40;6.33;;;0.60;99.90;;;;;;4921365;29;20231;-92
2021/03/18 01:52:41;;;;;;;7.87;5.53;;;0.60;99.90;;;;;;4903941;29;20188;-91
2021/03/18 01:55:10;;;;;;;8.20;5.63;;;0.70;99.90;;;;;;4903997;29;20180;-92
2021/03/18 01:57:37;;;;;;;8.07;6.30;;;0.70;99.90;;;;;;4904234;29;20275;-92
2021/03/18 02:00:06;;;;;;;8.07;6.10;;;0.60;99.90;;;;;;4913508;29;20258;-91
2021/03/18 02:02:32;;;;;;;8.70;6.23;;;0.60;99.90;;;;;;4920462;29;20660;-92
2021/03/18 02:05:02;;;;;;;9.90;6.07;;;0.50;99.90;;;;;;4903771;29;20535;-94
2021/03/18 02:07:27;;;;;;;10.50;6.37;;;0.60;99.90;;;;;;4904378;29;20190;-91
2021/03/18 02:09:53;;;;;;;7.43;5.77;;;0.60;99.90;;;;;;4903881;29;20182;-92
2021/03/18 02:12:19;;;;;;;9.20;5.57;;;0.60;99.90;;;;;;4905282;29;20190;-92
2021/03/18 02:14:45;;;;;;;8.87;6.57;;;0.60;99.90;;;;;;4904113;29;20268;-92
2021/03/18 02:17:19;;;;;;;6.20;5.20;;;0.60;99.90;;;;;;4925479;29;20273;-92
2021/03/18 02:20:27;;;;;;;9.33;6.07;;;0.60;99.90;;;;;;4923496;29;20178;-94
2021/03/18 02:22:56;;;;;;;6.40;5.07;;;0.60;99.90;;;;;;4937947;29;20215;-92
2021/03/18 02:25:24;;;;;;;7.63;5.80;;;0.50;99.90;;;;;;4937245;29;20226;-93
2021/03/18 02:28:24;;;;;;;7.97;5.30;;;0.50;99.90;;;;;;4922405;29;20214;-91
2021/03/18 02:31:03;;;;;;;7.27;5.53;;;0.50;99.90;;;;;;4922419;29;20180;-92
2021/03/18 02:33:49;;;;;;;7.30;5.47;;;0.50;99.90;;;;;;4938185;29;20183;-92
2021/03/18 02:36:19;;;;;;;10.77;6.10;;;0.40;99.90;;;;;;4938148;29;20183;-93
2021/03/18 02:38:59;;;;;;;11.43;6.80;;;0.30;99.90;;;;;;4938895;29;20185;-91
2021/03/18 02:41:39;;;;;;;11.40;6.77;;;0.30;99.90;;;;;;4938284;29;20250;-90
2021/03/18 02:44:27;;;;;;;9.07;7.07;;;0.40;99.90;;;;;;4921521;29;20212;-92
2021/03/18 02:46:59;;;;;;;9.77;7.70;;;0.40;99.90;;;;;;4916957;29;20253;-93
2021/03/18 02:49:27;;;;;;;10.90;8.20;;;0.40;99.90;;;;;;4919295;29;20181;-93
2021/03/18 02:51:54;;;;;;;14.70;8.97;;;0.40;99.90;;;;;;4903819;29;20178;-92
2021/03/18 02:54:21;;;;;;;10.70;8.80;;;0.40;99.90;;;;;;4918939;29;20580;-92
2021/03/18 02:56:50;;;;;;;11.60;8.27;;;0.40;99.90;;;;;;4903000;29;20536;-91
2021/03/18 02:59:25;;;;;;;10.43;8.40;;;0.40;99.90;;;;;;4905575;29;20220;-91
2021/03/18 03:01:52;;;;;;;10.73;8.67;;;0.40;99.90;;;;;;4903931;29;20211;-92
2021/03/18 03:04:19;;;;;;;10.43;8.90;;;0.40;99.90;;;;;;4903040;29;20186;-91
2021/03/18 03:06:48;;;;;;;12.60;9.37;;;0.40;99.90;;;;;;4903003;29;20186;-92
2021/03/18 03:09:14;;;;;;;12.80;9.87;;;0.40;99.90;;;;;;4905906;29;20186;-94
2021/03/18 03:11:41;;;;;;;12.83;10.30;;;0.40;99.90;;;;;;4903626;29;20176;-96
2021/03/18 03:14:08;;;;;;;11.73;9.60;;;0.40;99.90;;;;;;4903251;29;20197;-96
2021/03/18 03:16:35;;;;;;;16.43;11.43;;;0.40;99.90;;;;;;4902850;29;20183;-96
2021/03/18 03:19:02;;;;;;;13.47;10.23;;;0.40;99.90;;;;;;4902830;29;20194;-96
2021/03/18 03:21:28;;;;;;;13.37;10.50;;;0.40;99.90;;;;;;4902218;29;20238;-96
2021/03/18 03:23:55;;;;;;;16.87;10.73;;;0.40;99.90;;;;;;4901954;29;20182;-96
2021/03/18 03:26:23;;;;;;;12.83;10.20;;;0.40;99.90;;;;;;4902007;29;20231;-96
2021/03/18 03:28:50;;;;;;;12.37;9.97;;;0.40;99.90;;;;;;4902107;29;20189;-96
2021/03/18 03:31:17;;;;;;;14.27;11.67;;;0.30;99.90;;;;;;4902900;29;20180;-95
2021/03/18 03:33:43;;;;;;;16.33;11.50;;;0.30;99.90;;;;;;4902397;29;20260;-95
2021/03/18 03:36:09;;;;;;;15.50;11.17;;;0.30;99.90;;;;;;4902211;29;20186;-94
2021/03/18 03:38:36;;;;;;;14.80;10.67;;;0.40;99.90;;;;;;4902888;29;20238;-94
2021/03/18 03:41:03;;;;;;;16.80;11.17;;;0.40;99.90;;;;;;4901972;29;20246;-94
2021/03/18 03:43:28;;;;;;;14.03;11.17;;;0.30;99.90;;;;;;4901758;29;20188;-95
2021/03/18 03:45:54;;;;;;;15.53;11.70;;;0.30;99.90;;;;;;4901550;29;20186;-94
2021/03/18 03:48:21;;;;;;;18.50;12.37;;;0.30;99.90;;;;;;4902170;29;20203;-96
2021/03/18 03:50:48;;;;;;;16.40;11.73;;;0.20;99.90;;;;;;4901934;29;20191;-96
2021/03/18 03:53:34;;;;;;;16.03;11.87;;;0.20;99.90;;;;;;4901775;29;20198;-91
2021/03/18 03:56:21;;;;;;;17.50;12.13;;;0.30;99.90;;;;;;4901103;29;20186;-91
2021/03/18 03:58:46;;;;;;;16.43;12.13;;;0.30;99.90;;;;;;4901790;29;20273;-91
2021/03/18 04:02:02;;;;;;;15.83;12.27;;;0.30;99.90;;;;;;4901486;29;20335;-90
2021/03/18 04:04:36;;;;;;;13.10;10.10;;;0.30;99.90;;;;;;4844943;29;20193;-91
2021/03/18 04:07:05;;;;;;;16.40;11.77;;;0.30;99.90;;;;;;4860423;29;20176;-90
2021/03/18 04:09:32;;;;;;;18.63;12.43;;;0.30;99.90;;;;;;4891419;29;20222;-92
2021/03/18 04:12:00;;;;;;;15.57;11.80;;;0.30;99.90;;;;;;4901443;29;20570;-90
2021/03/18 04:14:34;;;;;;;16.20;12.77;;;0.30;99.90;;;;;;4901916;29;20290;-91
2021/03/18 04:17:06;;;;;;;16.93;12.03;;;0.30;99.90;;;;;;4906783;29;20281;-90
2021/03/18 04:19:32;;;;;;;16.93;12.17;;;0.30;99.90;;;;;;4920345;29;20173;-91
2021/03/18 04:21:58;;;;;;;16.97;12.13;;;0.30;99.90;;;;;;4920194;29;20212;-90
2021/03/18 04:24:25;;;;;;;17.60;12.80;;;0.30;99.90;;;;;;4920537;29;20252;-91
2021/03/18 04:26:53;;;;;;;16.03;10.80;;;0.30;99.90;;;;;;4920064;29;20235;-91
2021/03/18 04:29:20;;;;;;;16.00;11.00;;;0.20;99.90;;;;;;4920658;29;20190;-92
2021/03/18 04:31:47;;;;;;;15.33;12.10;;;0.20;99.90;;;;;;4920235;29;20217;-91
2021/03/18 04:34:15;;;;;;;17.50;11.07;;;0.10;99.90;;;;;;4920247;29;20651;-88
2021/03/18 04:36:43;;;;;;;15.90;11.87;;;0.10;99.90;;;;;;4920065;29;20191;-88
2021/03/18 04:39:11;;;;;;;18.23;12.33;;;0.10;99.90;;;;;;4920091;29;20624;-96
2021/03/18 04:41:37;;;;;;;18.30;12.93;;;0.10;99.90;;;;;;4910517;29;20293;-95
2021/03/18 04:44:05;;;;;;;16.73;12.57;;;0.10;99.90;;;;;;4903267;29;20283;-93
2021/03/18 04:46:33;;;;;;;18.37;12.77;;;0.10;99.90;;;;;;4904548;29;20590;-95
2021/03/18 04:49:01;;;;;;;16.93;12.87;;;0.10;99.90;;;;;;4904814;29;20208;-92
2021/03/18 04:51:27;;;;;;;18.03;13.33;;;0.20;99.90;;;;;;4921364;29;20193;-93
2021/03/18 04:53:59;;;;;;;19.17;12.60;;;0.10;99.90;;;;;;4904438;29;20187;-91
2021/03/18 04:56:26;;;;;;;17.87;13.33;;;0.10;99.90;;;;;;4904455;29;20275;-94
2021/03/18 04:58:55;;;;;;;26.03;13.47;;;0.10;99.90;;;;;;4904158;29;20183;-93
2021/03/18 05:01:25;;;;;;;20.13;14.13;;;0.10;99.90;;;;;;4903880;29;20211;-89
2021/03/18 05:03:52;;;;;;;19.23;14.03;;;0.10;99.90;;;;;;4904027;29;20178;-90
2021/03/18 05:06:21;;;;;;;21.20;14.77;;;0.10;99.90;;;;;;4904038;29;20190;-89
2021/03/18 05:08:47;;;;;;;18.73;14.03;;;0.10;99.90;;;;;;4904393;29;20225;-90
2021/03/18 05:11:13;;;;;;;19.93;14.67;;;0.10;99.90;;;;;;4904243;29;20206;-89
2021/03/18 05:13:41;;;;;;;20.17;15.57;;;0.10;99.90;;;;;;4903886;29;20202;-90
2021/03/18 05:16:07;;;;;;;19.97;14.93;;;0.10;99.90;;;;;;4904094;29;20280;-88
2021/03/18 05:18:34;;;;;;;24.27;15.73;;;0.20;99.90;;;;;;4904140;29;20647;-90
2021/03/18 05:21:04;;;;;;;22.13;15.53;;;0.20;99.90;;;;;;4904084;29;20176;-88
2021/03/18 05:23:31;;;;;;;22.13;15.93;;;0.20;99.90;;;;;;4903898;29;20177;-91
2021/03/18 05:25:56;;;;;;;20.47;15.47;;;0.20;99.90;;;;;;4903330;29;20820;-89
2021/03/18 05:28:22;;;;;;;21.40;14.90;;;0.10;99.90;;;;;;4903014;29;20213;-93
2021/03/18 05:30:48;;;;;;;24.53;14.73;;;0.10;99.90;;;;;;4903574;29;20641;-90
2021/03/18 05:33:15;;;;;;;21.33;15.30;;;0.10;99.90;;;;;;4903820;29;20186;-93
2021/03/18 05:35:43;;;;;;;19.67;14.83;;;0.10;99.90;;;;;;4903746;29;20189;-96
2021/03/18 05:38:11;;;;;;;20.40;14.60;;;0.10;99.90;;;;;;4903719;29;20586;-94
2021/03/18 05:40:39;;;;;;;22.43;15.57;;;0.00;99.90;;;;;;4903725;29;20179;-93
2021/03/18 05:43:06;;;;;;;20.73;15.07;;;0.00;99.90;;;;;;4903894;29;20214;-90
2021/03/18 05:45:32;;;;;;;20.03;14.93;;;0.00;99.90;;;;;;4919438;29;20269;-91
2021/03/18 05:47:59;;;;;;;21.03;15.20;;;0.00;99.90;;;;;;4922386;29;20191;-93
2021/03/18 05:50:25;;;;;;;24.30;16.00;;;0.00;99.90;;;;;;4922398;29;20180;-91
2021/03/18 05:52:53;;;;;;;22.70;15.43;;;0.10;99.90;;;;;;4921926;29;20182;-93
2021/03/18 05:55:20;;;;;;;22.37;16.03;;;0.00;99.90;;;;;;4921888;29;20620;-92
2021/03/18 05:57:48;;;;;;;24.30;17.43;;;0.10;99.90;;;;;;4922236;29;20213;-92
2021/03/18 06:00:20;;;;;;;26.67;18.03;;;0.10;99.90;;;;;;4921968;29;20239;-91
2021/03/18 06:02:49;;;;;;;26.60;17.80;;;0.10;99.90;;;;;;4939394;29;20195;-91
2021/03/18 06:05:16;;;;;;;26.03;18.17;;;0.20;99.90;;;;;;4922103;29;20182;-92
2021/03/18 06:07:44;;;;;;;26.70;18.87;;;0.20;99.90;;;;;;4922244;29;20196;-90
2021/03/18 06:10:24;;;;;;;26.90;19.57;;;0.20;99.90;;;;;;4922126;29;20269;-91
2021/03/18 06:12:52;;;;;;;27.13;17.97;;;0.30;99.90;;;;;;4920325;29;20181;-95
2021/03/18 06:15:19;;;;;;;27.37;18.67;;;0.30;99.90;;;;;;4903052;29;20182;-93
2021/03/18 06:17:45;;;;;;;31.60;19.73;;;0.30;99.90;;;;;;4903464;29;20186;-96
2021/03/18 06:20:17;;;;;;;27.97;18.97;;;0.40;99.90;;;;;;4903251;29;20218;-96
2021/03/18 06:22:45;;;;;;;41.63;19.60;;;0.40;99.90;;;;;;4922943;29;20216;-96
2021/03/18 06:25:32;;;;;;;58.57;19.60;;;0.40;99.90;;;;;;4916979;29;20535;-96
2021/03/18 06:28:12;;;;;;;56.63;19.57;;;0.40;99.90;;;;;;4915678;29;20282;-95
2021/03/18 06:30:40;;;;;;;58.37;19.03;;;0.40;99.90;;;;;;4884831;29;20248;-96
2021/03/18 06:33:17;;;;;;;29.40;18.50;;;0.30;99.90;;;;;;4888721;29;20225;-96
2021/03/18 06:35:43;;;;;;;40.83;18.03;;;0.30;99.90;;;;;;4889267;29;20259;-96
2021/03/18 06:38:09;;;;;;;59.60;18.20;;;0.30;99.90;;;;;;4921006;29;20181;-95
2021/03/18 06:40:42;;;;;;;36.20;19.10;;;0.30;99.90;;;;;;4904520;29;20191;-94
2021/03/18 06:43:09;;;;;;;48.93;17.10;;;0.30;99.90;;;;;;4921406;29;20285;-96
2021/03/18 06:45:39;;;;;;;29.80;17.83;;;0.30;99.90;;;;;;4908389;29;20190;-96
2021/03/18 06:48:15;;;;;;;39.97;17.63;;;0.40;99.90;;;;;;4919033;29;20178;-96
2021/03/18 06:50:45;;;;;;;40.17;18.07;;;0.40;99.90;;;;;;4908195;29;20277;-96
2021/03/18 06:53:25;;;;;;;53.33;18.93;;;0.40;99.90;;;;;;4886142;29;20198;-95
2021/03/18 06:55:53;;;;;;;33.60;16.73;;;0.40;99.90;;;;;;4894600;29;20284;-96
2021/03/18 06:58:27;;;;;;;31.47;17.50;;;0.40;99.90;;;;;;4910814;29;20197;-93
2021/03/18 07:01:05;;;;;;;25.33;17.30;;;0.40;99.90;;;;;;4903095;29;20205;-96
2021/03/18 07:03:36;;;;;;;43.37;18.87;;;0.40;99.90;;;;;;4903034;29;20257;-96
2021/03/18 07:06:05;;;;;;;29.27;18.30;;;0.50;99.90;;;;;;4922998;29;20629;-94
2021/03/18 07:08:36;;;;;;;26.87;19.03;;;0.50;99.90;;;;;;4902432;29;20200;-92
2021/03/18 07:11:17;;;;;;;59.30;19.80;;;0.50;99.90;;;;;;4902880;29;20212;-93
2021/03/18 07:13:44;;;;;;;36.50;20.07;;;0.50;99.90;;;;;;4902583;29;20217;-93
2021/03/18 07:16:14;;;;;;;31.63;20.90;;;0.40;99.90;;;;;;4895391;29;20189;-93
2021/03/18 07:18:40;;;;;;;42.73;20.47;;;0.50;99.90;;;;;;4894280;29;20692;-93
2021/03/18 07:21:12;;;;;;;36.53;19.93;;;0.50;99.90;;;;;;4914490;29;20196;-93
2021/03/18 07:23:41;;;;;;;35.03;19.43;;;0.50;99.90;;;;;;4883395;29;20293;-93
2021/03/18 07:26:12;;;;;;;32.90;18.80;;;0.60;99.90;;;;;;4894466;29;20229;-94
2021/03/18 07:28:38;;;;;;;24.97;17.90;;;0.60;99.90;;;;;;4902929;29;20563;-93
2021/03/18 07:31:05;;;;;;;35.77;18.73;;;0.60;99.90;;;;;;4887749;29;20186;-94
2021/03/18 07:33:32;;;;;;;27.70;18.63;;;0.70;99.90;;;;;;4902199;29;20211;-93
2021/03/18 07:36:00;;;;;;;29.83;18.47;;;0.70;99.90;;;;;;4901439;29;20331;-92
2021/03/18 07:38:28;;;;;;;33.37;19.20;;;0.70;99.90;;;;;;4883384;29;20186;-93
2021/03/18 07:40:54;;;;;;;28.43;19.03;;;0.70;99.90;;;;;;4896400;29;20240;-93
2021/03/18 07:43:21;;;;;;;29.03;17.47;;;0.80;99.90;;;;;;4910708;29;21112;-92
2021/03/18 07:45:48;;;;;;;38.43;17.90;;;0.80;99.90;;;;;;4902453;29;20182;-91
2021/03/18 07:48:18;;;;;;;32.40;17.80;;;0.80;99.90;;;;;;4911435;29;20683;-93
2021/03/18 07:50:44;;;;;;;26.07;18.03;;;0.80;99.90;;;;;;4892918;29;20187;-92
2021/03/18 07:53:13;;;;;;;28.77;16.73;;;0.80;99.90;;;;;;4906903;29;20185;-91
2021/03/18 07:55:40;;;;;;;37.67;17.40;;;0.80;99.90;;;;;;4904264;29;20233;-91
2021/03/18 07:58:07;;;;;;;27.67;17.47;;;0.80;99.90;;;;;;4913313;29;20199;-92
2021/03/18 08:00:34;;;;;;;38.93;18.50;;;0.90;99.90;;;;;;4932621;29;20201;-93
2021/03/18 08:03:27;;;;;;;32.10;17.67;;;0.90;99.90;;;;;;4935588;29;20230;-93
2021/03/18 08:05:53;;;;;;;36.53;17.53;;;1.00;99.90;;;;;;4938685;29;20179;-91
2021/03/18 08:08:31;;;;;;;62.20;19.10;;;1.10;99.90;;;;;;4936883;29;20233;-91
2021/03/18 08:11:15;;;;;;;31.50;19.07;;;1.00;99.90;;;;;;4921676;29;20198;-92
2021/03/18 08:13:44;;;;;;;49.07;20.10;;;0.90;99.90;;;;;;4950125;23;20685;-96
2021/03/18 08:16:29;;;;;;;46.77;21.73;;;0.90;99.90;;;;;;4923096;29;20269;-96
2021/03/18 08:19:15;;;;;;;35.97;20.23;;;0.90;99.90;;;;;;4924751;29;20197;-94
2021/03/18 08:22:04;;;;;;;34.57;19.37;;;0.90;99.90;;;;;;4927187;29;20214;-93
2021/03/18 08:24:48;;;;;;;31.63;19.37;;;1.00;99.90;;;;;;4923522;29;20179;-95
2021/03/18 08:27:30;;;;;;;43.80;20.63;;;1.10;99.90;;;;;;4924891;29;20626;-96
2021/03/18 08:29:56;;;;;;;27.13;20.23;;;1.10;99.90;;;;;;4924398;29;20198;-95
2021/03/18 08:32:28;;;;;;;28.43;20.13;;;1.10;99.90;;;;;;4924199;29;20669;-96
2021/03/18 08:34:59;;;;;;;26.37;18.70;;;1.20;99.90;;;;;;4924111;29;20182;-96
2021/03/18 08:37:48;;;;;;;30.07;19.67;;;1.20;99.90;;;;;;4923527;29;20209;-95
2021/03/18 08:40:20;;;;;;;23.70;18.20;;;1.30;99.90;;;;;;4923831;29;20182;-94
2021/03/18 08:42:50;;;;;;;31.37;20.93;;;1.30;99.90;;;;;;4923400;29;20213;-95
2021/03/18 08:45:19;;;;;;;30.70;20.97;;;1.30;99.90;;;;;;4923804;29;20185;-96
2021/03/18 08:48:11;;;;;;;26.87;19.97;;;1.40;99.90;;;;;;4924527;29;20168;-95
2021/03/18 08:50:36;;;;;;;31.77;20.63;;;1.30;99.90;;;;;;4924755;29;20194;-95
2021/03/18 08:53:23;;;;;;;31.53;21.43;;;1.40;99.90;;;;;;4925192;29;20205;-94
2021/03/18 08:55:50;;;;;;;30.07;21.30;;;1.50;99.90;;;;;;4925435;29;20259;-94
2021/03/18 08:58:16;;;;;;;31.63;22.20;;;1.50;99.90;;;;;;4925652;29;20167;-94
2021/03/18 09:00:45;;;;;;;30.77;20.77;;;1.50;99.90;;;;;;4926710;29;20613;-95
2021/03/18 09:03:16;;;;;;;34.63;22.00;;;1.50;99.90;;;;;;4925313;29;20201;-93
2021/03/18 09:05:56;;;;;;;31.90;23.00;;;1.50;99.90;;;;;;4925403;29;20174;-93
2021/03/18 09:08:24;;;;;;;31.53;22.33;;;1.50;99.90;;;;;;4925722;29;20197;-94
2021/03/18 09:10:53;;;;;;;32.83;22.60;;;1.50;99.90;;;;;;4924794;29;20208;-95
2021/03/18 09:13:22;;;;;;;31.87;21.97;;;1.50;99.90;;;;;;4922302;29;20230;-94
2021/03/18 09:15:49;;;;;;;37.53;23.43;;;1.50;99.90;;;;;;4924068;29;20224;-95
2021/03/18 09:18:21;;;;;;;32.30;21.40;;;1.50;99.90;;;;;;4924837;29;20217;-96
2021/03/18 09:21:04;;;;;;;32.00;22.00;;;1.50;99.90;;;;;;4924540;29;20210;-96
2021/03/18 09:23:35;;;;;;;30.80;21.23;;;1.40;99.90;;;;;;4923031;29;20228;-95
2021/03/18 09:26:03;;;;;;;32.20;22.13;;;1.40;99.90;;;;;;4923641;29;20354;-95
2021/03/18 09:28:36;;;;;;;29.70;19.27;;;1.50;99.90;;;;;;4923603;29;20177;-95
2021/03/18 09:31:03;;;;;;;31.60;21.17;;;1.60;99.90;;;;;;4922788;29;20243;-96
2021/03/18 09:33:36;;;;;;;32.77;20.87;;;1.50;99.90;;;;;;4924024;29;20576;-95
2021/03/18 09:36:18;;;;;;;32.63;21.53;;;1.50;99.90;;;;;;4926914;29;20178;-96
2021/03/18 09:39:09;;;;;;;34.43;23.23;;;1.50;99.90;;;;;;4925495;29;20180;-95
2021/03/18 09:41:48;;;;;;;34.03;22.60;;;1.50;99.90;;;;;;4923410;29;20202;-96
2021/03/18 09:44:16;;;;;;;30.23;21.30;;;1.50;99.90;;;;;;4924113;29;20189;-95
2021/03/18 09:46:47;;;;;;;30.60;20.00;;;1.60;99.90;;;;;;4922629;29;20276;-95
2021/03/18 09:49:14;;;;;;;27.87;19.70;;;1.80;99.90;;;;;;4923820;29;20185;-94
2021/03/18 09:51:42;;;;;;;26.37;18.17;;;1.80;99.90;;;;;;4923202;29;20232;-95
2021/03/18 09:54:11;;;;;;;28.70;18.93;;;1.80;99.90;;;;;;4922685;29;20178;-94
2021/03/18 09:56:40;;;;;;;27.77;19.23;;;1.80;99.90;;;;;;4923297;29;20178;-94
2021/03/18 09:59:09;;;;;;;24.47;18.23;;;1.80;99.90;;;;;;4922911;29;20551;-95
2021/03/18 10:01:36;;;;;;;28.50;19.83;;;1.80;99.90;;;;;;4922981;29;20690;-95
2021/03/18 10:04:05;;;;;;;29.43;19.77;;;1.80;99.90;;;;;;4924675;29;20181;-95
2021/03/18 10:06:32;;;;;;;26.67;19.67;;;1.90;99.90;;;;;;4926056;29;20170;-93
2021/03/18 10:09:14;;;;;;;24.20;17.77;;;2.00;99.90;;;;;;4928328;29;20177;-95
2021/03/18 10:11:44;;;;;;;23.93;17.87;;;2.00;99.90;;;;;;4922978;29;20295;-93
2021/03/18 10:14:10;;;;;;;22.50;16.17;;;2.00;99.90;;;;;;4923162;29;20724;-94
2021/03/18 10:16:38;;;;;;;22.47;16.20;;;2.10;99.90;;;;;;4924537;29;20268;-96
2021/03/18 10:19:09;;;;;;;20.87;15.37;;;2.10;99.90;;;;;;4923587;29;20178;-96
2021/03/18 10:21:37;;;;;;;19.90;14.17;;;2.20;99.90;;;;;;4925842;29;20210;-95
2021/03/18 10:24:05;;;;;;;19.93;14.87;;;2.10;99.90;;;;;;4923214;29;20225;-94
2021/03/18 10:26:31;;;;;;;21.97;16.23;;;2.10;99.90;;;;;;4924267;29;20182;-94
2021/03/18 10:28:59;;;;;;;21.50;16.33;;;2.10;99.90;;;;;;4924947;29;20185;-93
2021/03/18 10:31:25;;;;;;;22.60;17.20;;;2.20;99.90;;;;;;4923740;29;20662;-94
2021/03/18 10:33:51;;;;;;;21.70;15.77;;;2.20;99.90;;;;;;4925302;29;20181;-96
2021/03/18 10:36:40;;;;;;;21.23;16.33;;;2.40;99.90;;;;;;4923489;29;20190;-95
2021/03/18 10:39:13;;;;;;;23.93;17.70;;;2.30;99.90;;;;;;4925550;29;20562;-93
2021/03/18 10:41:49;;;;;;;23.67;17.00;;;2.30;99.90;;;;;;4924684;29;20301;-94
2021/03/18 10:44:15;;;;;;;25.47;18.23;;;2.40;99.90;;;;;;4924211;29;20180;-94
2021/03/18 10:46:41;;;;;;;25.00;17.83;;;2.30;99.90;;;;;;4923611;29;20187;-93
2021/03/18 10:49:11;;;;;;;25.40;17.50;;;2.30;99.90;;;;;;4923615;29;20176;-94
2021/03/18 10:51:47;;;;;;;23.90;17.73;;;2.40;99.90;;;;;;4923465;29;20213;-93
2021/03/18 10:54:21;;;;;;;21.07;16.40;;;2.30;99.90;;;;;;4922414;29;20521;-96
2021/03/18 10:56:49;;;;;;;25.60;18.23;;;2.20;99.90;;;;;;4922308;29;20635;-94
2021/03/18 10:59:21;;;;;;;29.83;19.10;;;2.20;99.90;;;;;;4923022;29;20187;-93
2021/03/18 11:01:49;;;;;;;28.43;18.97;;;2.20;99.90;;;;;;4924847;29;20216;-96
2021/03/18 11:04:18;;;;;;;25.27;19.17;;;2.20;99.90;;;;;;4942146;29;20222;-96
2021/03/18 11:06:52;;;;;;;29.10;19.93;;;2.20;99.90;;;;;;4926455;29;20247;-94
2021/03/18 11:09:23;;;;;;;26.90;20.33;;;2.30;99.90;;;;;;4926739;29;20225;-92
2021/03/18 11:11:57;;;;;;;26.80;18.50;;;2.30;99.90;;;;;;4928592;29;20230;-93
2021/03/18 11:14:28;;;;;;;29.20;18.90;;;2.30;99.90;;;;;;4925300;29;20242;-93
2021/03/18 11:17:04;;;;;;;25.67;18.30;;;2.30;99.90;;;;;;4925538;29;20187;-94
2021/03/18 11:19:38;;;;;;;27.47;18.90;;;2.30;99.90;;;;;;4926975;29;20187;-92
2021/03/18 11:22:06;;;;;;;23.70;17.37;;;2.40;99.90;;;;;;4927006;29;20321;-94
2021/03/18 11:24:42;;;;;;;22.77;17.20;;;2.40;99.90;;;;;;4926419;29;20178;-93
2021/03/18 11:27:26;;;;;;;24.27;17.27;;;2.40;99.90;;;;;;4925782;29;20250;-93
2021/03/18 11:29:53;;;;;;;24.73;18.27;;;2.50;99.90;;;;;;4922510;29;20192;-95
2021/03/18 11:32:26;;;;;;;22.43;15.83;;;2.60;99.90;;;;;;4924566;29;20209;-95
2021/03/18 11:35:00;;;;;;;22.60;15.87;;;2.60;99.90;;;;;;4921610;29;20221;-96
2021/03/18 11:37:31;;;;;;;21.77;16.17;;;2.60;99.90;;;;;;4920839;29;20208;-93
2021/03/18 11:40:03;;;;;;;22.87;16.27;;;2.50;99.90;;;;;;4920414;29;20277;-92
2021/03/18 11:42:40;;;;;;;24.73;17.60;;;2.40;99.90;;;;;;4920363;29;20251;-95
2021/03/18 11:45:12;;;;;;;26.37;18.07;;;2.50;99.90;;;;;;4921376;29;20179;-96
2021/03/18 11:47:38;;;;;;;24.57;17.93;;;2.50;99.90;;;;;;4921923;29;20608;-92
2021/03/18 11:50:12;;;;;;;23.50;17.47;;;2.50;99.90;;;;;;4923232;29;20212;-94
2021/03/18 11:52:47;;;;;;;22.63;16.47;;;2.50;99.90;;;;;;4920362;29;20178;-95
2021/03/18 11:55:26;;;;;;;22.40;16.37;;;2.50;99.90;;;;;;4920444;29;20184;-96
2021/03/18 11:58:01;;;;;;;25.50;18.03;;;2.60;99.90;;;;;;4920985;29;20276;-93
2021/03/18 12:00:29;;;;;;;27.63;18.97;;;2.60;99.90;;;;;;4923951;29;20260;-94
2021/03/18 12:03:00;;;;;;;26.50;18.30;;;2.50;99.90;;;;;;4922049;29;20230;-93
2021/03/18 12:05:27;;;;;;;36.60;20.03;;;2.50;99.90;;;;;;4922207;29;20177;-95
2021/03/18 12:07:57;;;;;;;28.63;20.73;;;2.40;99.90;;;;;;4923846;29;20632;-94
2021/03/18 12:10:24;;;;;;;26.83;19.40;;;2.40;99.90;;;;;;4921683;29;20216;-93
2021/03/18 12:12:52;;;;;;;28.63;19.77;;;2.40;99.90;;;;;;4921151;29;20228;-94
2021/03/18 12:15:18;;;;;;;27.13;19.30;;;2.50;99.90;;;;;;4922619;29;20189;-93
2021/03/18 12:17:46;;;;;;;28.83;19.57;;;2.50;99.90;;;;;;4911157;29;20178;-92
2021/03/18 12:20:16;;;;;;;31.07;20.57;;;2.50;99.90;;;;;;4903297;29;20626;-92
2021/03/18 12:22:45;;;;;;;27.27;19.63;;;2.50;99.90;;;;;;4900997;29;20675;-93
2021/03/18 12:25:13;;;;;;;28.33;20.13;;;2.60;99.90;;;;;;4902478;29;20277;-93
2021/03/18 12:27:39;;;;;;;28.67;20.20;;;2.60;99.90;;;;;;4903090;29;20258;-95
2021/03/18 12:30:12;;;;;;;30.13;21.13;;;2.50;99.90;;;;;;4902585;29;20197;-93
2021/03/18 12:32:39;;;;;;;27.90;19.80;;;2.50;99.90;;;;;;4904607;29;20242;-95
2021/03/18 12:35:05;;;;;;;29.17;20.53;;;2.40;99.90;;;;;;4903975;29;20721;-94
2021/03/18 12:37:31;;;;;;;31.93;21.70;;;2.40;99.90;;;;;;4902554;29;20192;-94
2021/03/18 12:39:57;;;;;;;32.13;20.60;;;2.40;99.90;;;;;;4903655;29;20175;-92
2021/03/18 12:42:24;;;;;;;29.07;19.63;;;2.50;99.90;;;;;;4902738;29;20214;-96
2021/03/18 12:44:49;;;;;;;29.83;18.73;;;2.60;99.90;;;;;;4902641;29;20623;-94
2021/03/18 12:47:16;;;;;;;29.63;19.87;;;2.60;99.90;;;;;;4925306;29;20196;-93
2021/03/18 12:49:42;;;;;;;31.80;21.40;;;2.60;99.90;;;;;;4937648;29;20197;-94
2021/03/18 12:52:08;;;;;;;31.57;21.30;;;2.50;99.90;;;;;;4939076;29;20264;-95
2021/03/18 12:54:35;;;;;;;32.63;20.53;;;2.50;99.90;;;;;;4939229;29;20172;-94
2021/03/18 12:57:01;;;;;;;29.10;20.50;;;2.60;99.90;;;;;;4936189;29;20174;-94